createdAt,value
2017-09-20T00:00:54.897Z,11.5
2017-09-20T00:01:54.695Z,11.5
2017-09-20T00:02:53.486Z,11.5
2017-09-20T00:03:52.412Z,11.5
2017-09-20T00:04:52.087Z,11.4
2017-09-20T00:05:51.511Z,11.4
2017-09-20T00:06:50.435Z,11.4
2017-09-20T00:07:49.613Z,11.4
2017-09-20T00:08:48.157Z,11.4
2017-09-20T00:09:47.975Z,11.3
2017-09-20T00:10:46.666Z,11.3
2017-09-20T00:11:45.968Z,11.3
2017-09-20T00:12:45.264Z,11.3
2017-09-20T00:13:44.821Z,11.3
2017-09-20T00:14:43.490Z,11.3
2017-09-20T00:16:42.168Z,11.3
2017-09-20T00:17:41.589Z,11.3
2017-09-20T00:18:40.639Z,11.3
2017-09-20T00:19:39.947Z,11.2
2017-09-20T00:20:38.776Z,11.2
2017-09-20T00:21:37.947Z,11.2
2017-09-20T00:22:37.369Z,11.2
2017-09-20T00:23:36.671Z,11.2
2017-09-20T00:24:35.593Z,11.2
2017-09-20T00:25:35.148Z,11.2
2017-09-20T00:26:33.950Z,11.2
2017-09-20T00:27:33.368Z,11.1
2017-09-20T00:28:32.790Z,11.1
2017-09-20T00:29:31.882Z,11.1
2017-09-20T00:30:30.809Z,11.1
2017-09-20T00:31:30.357Z,11.1
2017-09-20T00:32:29.283Z,11.1
2017-09-20T00:33:28.333Z,11.1
2017-09-20T00:34:27.377Z,11.1
2017-09-20T00:34:58.368Z,11.1
2017-09-20T00:35:28.355Z,11
2017-09-20T00:36:26.018Z,11
2017-09-20T00:37:24.807Z,11
2017-09-20T00:38:23.976Z,11
2017-09-20T00:39:23.160Z,11
2017-09-20T00:40:22.331Z,11
2017-09-20T00:41:21.509Z,11.1
2017-09-20T00:42:20.942Z,11.1
2017-09-20T00:43:20.627Z,11.1
2017-09-20T00:44:19.177Z,11.1
2017-09-20T00:45:18.347Z,11
2017-09-20T00:45:49.087Z,11
2017-09-20T00:46:18.940Z,11
2017-09-20T00:47:16.853Z,11.1
2017-09-20T00:49:15.323Z,11
2017-09-20T00:50:14.250Z,11
2017-09-20T00:51:13.417Z,11
2017-09-20T00:52:12.970Z,11
2017-09-20T00:53:12.143Z,11
2017-09-20T00:54:11.064Z,11
2017-09-20T00:55:10.620Z,11
2017-09-20T00:56:09.419Z,11
2017-09-20T00:57:08.712Z,11
2017-09-20T00:58:07.761Z,11
2017-09-20T00:59:06.807Z,11
2017-09-20T01:00:05.978Z,11
2017-09-20T01:01:05.278Z,11
2017-09-20T01:02:04.829Z,10.9
2017-09-20T01:03:03.378Z,10.9
2017-09-20T01:04:02.806Z,10.9
2017-09-20T01:06:00.997Z,10.9
2017-09-20T01:07:00.168Z,10.9
2017-09-20T01:07:59.466Z,10.8
2017-09-20T01:08:58.892Z,10.8
2017-09-20T01:09:58.189Z,10.8
2017-09-20T01:10:56.982Z,10.8
2017-09-20T01:11:56.280Z,10.8
2017-09-20T01:12:55.447Z,10.7
2017-09-20T01:13:54.617Z,10.7
2017-09-20T01:14:53.790Z,10.7
2017-09-20T01:15:52.836Z,10.6
2017-09-20T01:16:52.264Z,10.6
2017-09-20T01:17:22.367Z,10.6
2017-09-20T01:17:52.862Z,10.6
2017-09-20T01:19:49.911Z,10.5
2017-09-20T01:20:48.850Z,10.5
2017-09-20T01:22:46.792Z,10.5
2017-09-20T01:23:46.718Z,10.5
2017-09-20T01:24:45.378Z,10.5
2017-09-20T01:25:44.679Z,10.5
2017-09-20T01:26:43.729Z,10.4
2017-09-20T01:27:43.039Z,10.4
2017-09-20T01:28:13.278Z,10.4
2017-09-20T01:28:43.914Z,10.4
2017-09-20T01:29:41.080Z,10.4
2017-09-20T01:30:40.629Z,10.4
2017-09-20T01:31:40.178Z,10.4
2017-09-20T01:32:38.844Z,10.4
2017-09-20T01:33:38.026Z,10.4
2017-09-20T01:34:37.323Z,10.3
2017-09-20T01:36:35.599Z,10.3
2017-09-20T01:37:35.145Z,10.3
2017-09-20T01:38:33.810Z,10.3
2017-09-20T01:39:32.987Z,10.3
2017-09-20T01:40:32.297Z,10.2
2017-09-20T01:41:31.845Z,10.2
2017-09-20T01:42:30.530Z,10.2
2017-09-20T01:43:29.827Z,10.2
2017-09-20T01:44:29.127Z,10.2
2017-09-20T01:45:28.417Z,10.1
2017-09-20T01:46:27.212Z,10.1
2017-09-20T01:47:26.521Z,10.1
2017-09-20T01:48:25.696Z,10.1
2017-09-20T01:49:25.168Z,10.1
2017-09-20T01:50:24.095Z,10
2017-09-20T01:51:23.266Z,10
2017-09-20T01:52:22.439Z,10
2017-09-20T01:53:21.226Z,10
2017-09-20T01:54:20.399Z,10
2017-09-20T01:55:19.696Z,10
2017-09-20T01:56:19.126Z,10
2017-09-20T01:57:18.045Z,10
2017-09-20T01:58:17.223Z,9.9
2017-09-20T01:59:16.662Z,9.9
2017-09-20T02:00:15.467Z,9.9
2017-09-20T02:01:15.018Z,9.9
2017-09-20T02:02:14.064Z,9.9
2017-09-20T02:03:13.231Z,9.9
2017-09-20T02:04:12.023Z,9.9
2017-09-20T02:05:11.446Z,9.8
2017-09-20T02:06:10.622Z,9.8
2017-09-20T02:07:10.051Z,9.8
2017-09-20T02:08:08.719Z,9.8
2017-09-20T02:09:07.895Z,9.8
2017-09-20T02:10:06.950Z,9.8
2017-09-20T02:11:06.126Z,9.8
2017-09-20T02:12:05.301Z,9.8
2017-09-20T02:13:04.482Z,9.8
2017-09-20T02:14:03.664Z,9.8
2017-09-20T02:15:02.976Z,9.8
2017-09-20T02:16:02.145Z,9.7
2017-09-20T02:17:01.574Z,9.7
2017-09-20T02:18:00.113Z,9.7
2017-09-20T02:18:59.790Z,9.7
2017-09-20T02:19:58.708Z,9.7
2017-09-20T02:20:58.263Z,9.7
2017-09-20T02:22:56.316Z,9.7
2017-09-20T02:23:55.241Z,9.7
2017-09-20T02:24:54.541Z,9.6
2017-09-20T02:25:53.589Z,9.6
2017-09-20T02:26:52.760Z,9.6
2017-09-20T02:27:52.193Z,9.6
2017-09-20T02:28:51.741Z,9.6
2017-09-20T02:29:50.544Z,9.6
2017-09-20T02:30:49.977Z,9.6
2017-09-20T02:31:48.915Z,9.6
2017-09-20T02:32:48.090Z,9.6
2017-09-20T02:33:47.263Z,9.6
2017-09-20T02:34:45.941Z,9.6
2017-09-20T02:35:44.994Z,9.6
2017-09-20T02:36:44.042Z,9.5
2017-09-20T02:37:43.852Z,9.5
2017-09-20T02:38:42.781Z,9.5
2017-09-20T02:39:41.827Z,9.5
2017-09-20T02:40:49.097Z,9.5
2017-09-20T02:41:40.355Z,9.5
2017-09-20T02:42:39.413Z,9.5
2017-09-20T02:43:38.722Z,9.5
2017-09-20T02:44:38.017Z,9.5
2017-09-20T02:45:36.814Z,9.5
2017-09-20T02:46:36.372Z,9.5
2017-09-20T02:47:35.418Z,9.5
2017-09-20T02:48:34.337Z,9.5
2017-09-20T02:49:04.442Z,9.5
2017-09-20T02:49:35.057Z,9.5
2017-09-20T02:50:32.860Z,9.5
2017-09-20T02:51:31.782Z,9.5
2017-09-20T02:52:31.208Z,9.5
2017-09-20T02:53:30.264Z,9.5
2017-09-20T02:54:29.458Z,9.5
2017-09-20T02:55:28.131Z,9.5
2017-09-20T02:56:27.173Z,9.5
2017-09-20T02:57:26.465Z,9.5
2017-09-20T02:58:25.763Z,9.5
2017-09-20T02:59:25.064Z,9.5
2017-09-20T03:00:23.734Z,9.4
2017-09-20T03:01:23.152Z,9.5
2017-09-20T03:02:22.576Z,9.5
2017-09-20T03:03:21.627Z,9.4
2017-09-20T03:05:20.180Z,9.5
2017-09-20T03:07:18.352Z,9.4
2017-09-20T03:07:48.337Z,9.4
2017-09-20T03:09:16.440Z,9.4
2017-09-20T03:11:14.908Z,9.4
2017-09-20T03:12:13.957Z,9.4
2017-09-20T03:13:13.252Z,9.3
2017-09-20T03:14:12.796Z,9.3
2017-09-20T03:16:10.600Z,9.3
2017-09-20T03:17:09.894Z,9.3
2017-09-20T03:19:08.086Z,9.3
2017-09-20T03:20:06.769Z,9.3
2017-09-20T03:22:05.204Z,9.3
2017-09-20T03:23:04.370Z,9.3
2017-09-20T03:24:03.668Z,9.2
2017-09-20T03:25:02.967Z,9.2
2017-09-20T03:26:01.769Z,9.2
2017-09-20T03:27:00.937Z,9.2
2017-09-20T03:28:59.742Z,9.2
2017-09-20T03:29:58.662Z,9.2
2017-09-20T03:30:57.969Z,9.2
2017-09-20T03:31:57.012Z,9.2
2017-09-20T03:32:56.055Z,9.2
2017-09-20T03:33:55.481Z,9.2
2017-09-20T03:34:54.149Z,9.2
2017-09-20T03:35:53.827Z,9.2
2017-09-20T03:36:52.745Z,9.2
2017-09-20T03:38:51.060Z,9.1
2017-09-20T03:39:49.975Z,9.2
2017-09-20T03:40:49.531Z,9.1
2017-09-20T03:41:48.077Z,9.2
2017-09-20T03:42:47.506Z,9.1
2017-09-20T03:43:17.610Z,9.1
2017-09-20T03:44:45.714Z,9.1
2017-09-20T03:45:45.136Z,9.1
2017-09-20T03:46:44.175Z,9.1
2017-09-20T03:48:42.350Z,9.1
2017-09-20T03:49:41.767Z,9.1
2017-09-20T03:50:40.560Z,9.1
2017-09-20T03:51:39.981Z,9.1
2017-09-20T03:52:38.775Z,9.1
2017-09-20T03:53:38.076Z,9.1
2017-09-20T03:54:37.754Z,9.2
2017-09-20T03:55:36.413Z,9.2
2017-09-20T03:56:35.206Z,9.2
2017-09-20T03:57:34.625Z,9.2
2017-09-20T03:59:32.813Z,9.2
2017-09-20T04:00:32.117Z,9.2
2017-09-20T04:01:31.036Z,9.3
2017-09-20T04:02:30.207Z,9.3
2017-09-20T04:03:29.658Z,9.3
2017-09-20T04:04:28.458Z,9.3
2017-09-20T04:05:27.752Z,9.3
2017-09-20T04:06:27.174Z,9.3
2017-09-20T04:07:25.726Z,9.3
2017-09-20T04:08:25.146Z,9.3
2017-09-20T04:09:24.195Z,9.3
2017-09-20T04:10:23.622Z,9.2
2017-09-20T04:11:23.046Z,9.2
2017-09-20T04:12:21.973Z,9.2
2017-09-20T04:13:20.772Z,9.3
2017-09-20T04:14:19.956Z,9.3
2017-09-20T04:15:19.131Z,9.3
2017-09-20T04:16:18.675Z,9.3
2017-09-20T04:17:17.472Z,9.3
2017-09-20T04:18:17.147Z,9.3
2017-09-20T04:19:16.076Z,9.3
2017-09-20T04:20:14.749Z,9.3
2017-09-20T04:21:13.792Z,9.3
2017-09-20T04:22:12.970Z,9.3
2017-09-20T04:23:12.141Z,9.3
2017-09-20T04:24:11.310Z,9.3
2017-09-20T04:24:41.672Z,9.3
2017-09-20T04:25:12.415Z,9.3
2017-09-20T04:25:42.899Z,9.3
2017-09-20T04:27:08.875Z,9.3
2017-09-20T04:28:07.924Z,9.3
2017-09-20T04:29:07.099Z,9.3
2017-09-20T04:30:06.526Z,9.3
2017-09-20T04:31:05.322Z,9.3
2017-09-20T04:32:04.374Z,9.3
2017-09-20T04:33:03.545Z,9.3
2017-09-20T04:34:02.976Z,9.3
2017-09-20T04:35:01.897Z,9.3
2017-09-20T04:37:00.622Z,9.3
2017-09-20T04:37:59.291Z,9.3
2017-09-20T04:38:58.342Z,9.3
2017-09-20T04:39:57.260Z,9.3
2017-09-20T04:40:57.059Z,9.3
2017-09-20T04:41:55.602Z,9.3
2017-09-20T04:42:54.648Z,9.3
2017-09-20T04:43:54.586Z,9.3
2017-09-20T04:44:53.134Z,9.3
2017-09-20T04:45:52.443Z,9.3
2017-09-20T04:46:51.878Z,9.3
2017-09-20T04:47:50.547Z,9.3
2017-09-20T04:48:49.965Z,9.3
2017-09-20T04:49:49.135Z,9.3
2017-09-20T04:50:48.571Z,9.3
2017-09-20T04:51:46.986Z,9.3
2017-09-20T04:52:46.908Z,9.4
2017-09-20T04:53:45.825Z,9.4
2017-09-20T04:54:45.125Z,9.4
2017-09-20T04:55:43.918Z,9.4
2017-09-20T04:56:43.343Z,9.4
2017-09-20T04:58:41.535Z,9.4
2017-09-20T04:59:40.584Z,9.4
2017-09-20T05:00:39.887Z,9.4
2017-09-20T05:02:37.817Z,9.4
2017-09-20T05:03:37.369Z,9.4
2017-09-20T05:04:36.165Z,9.4
2017-09-20T05:05:06.909Z,9.4
2017-09-20T05:05:37.017Z,9.4
2017-09-20T05:06:07.504Z,9.4
2017-09-20T05:06:38.241Z,9.4
2017-09-20T05:07:08.475Z,9.4
2017-09-20T05:08:32.814Z,9.4
2017-09-20T05:09:32.238Z,9.4
2017-09-20T05:10:31.034Z,9.4
2017-09-20T05:11:30.209Z,9.4
2017-09-20T05:12:29.387Z,9.4
2017-09-20T05:13:28.685Z,9.4
2017-09-20T05:14:27.613Z,9.4
2017-09-20T05:15:27.040Z,9.4
2017-09-20T05:16:25.719Z,9.4
2017-09-20T05:17:24.888Z,9.5
2017-09-20T05:18:24.327Z,9.5
2017-09-20T05:19:23.119Z,9.5
2017-09-20T05:20:22.290Z,9.5
2017-09-20T05:21:21.461Z,9.5
2017-09-20T05:22:20.636Z,9.5
2017-09-20T05:23:19.814Z,9.5
2017-09-20T05:24:19.236Z,9.5
2017-09-20T05:25:18.286Z,9.5
2017-09-20T05:25:49.027Z,9.5
2017-09-20T05:27:16.632Z,9.5
2017-09-20T05:28:15.804Z,9.5
2017-09-20T05:29:14.720Z,9.5
2017-09-20T05:31:13.155Z,9.5
2017-09-20T05:32:12.212Z,9.5
2017-09-20T05:33:11.767Z,9.5
2017-09-20T05:34:10.688Z,9.5
2017-09-20T05:35:09.607Z,9.5
2017-09-20T05:36:08.658Z,9.5
2017-09-20T05:37:08.090Z,9.5
2017-09-20T05:38:07.513Z,9.5
2017-09-20T05:39:06.339Z,9.5
2017-09-20T05:40:05.512Z,9.5
2017-09-20T05:41:04.309Z,9.5
2017-09-20T05:42:03.364Z,9.5
2017-09-20T05:43:02.786Z,9.5
2017-09-20T05:44:01.956Z,9.5
2017-09-20T05:45:01.010Z,9.5
2017-09-20T05:46:00.189Z,9.5
2017-09-20T05:46:59.364Z,9.5
2017-09-20T05:47:58.790Z,9.5
2017-09-20T05:48:57.839Z,9.5
2017-09-20T05:49:56.890Z,9.6
2017-09-20T05:50:56.469Z,9.6
2017-09-20T05:51:55.115Z,9.6
2017-09-20T05:52:54.542Z,9.6
2017-09-20T05:53:53.213Z,9.6
2017-09-20T05:54:52.393Z,9.6
2017-09-20T05:55:51.816Z,9.6
2017-09-20T05:56:51.111Z,9.6
2017-09-20T05:57:49.784Z,9.6
2017-09-20T05:58:49.210Z,9.6
2017-09-20T05:59:48.504Z,9.6
2017-09-20T06:00:47.174Z,9.6
2017-09-20T06:01:46.475Z,9.6
2017-09-20T06:02:45.899Z,9.6
2017-09-20T06:03:44.688Z,9.6
2017-09-20T06:04:44.126Z,9.6
2017-09-20T06:06:42.057Z,9.6
2017-09-20T06:07:41.477Z,9.6
2017-09-20T06:08:40.896Z,9.6
2017-09-20T06:09:39.438Z,9.6
2017-09-20T06:10:38.871Z,9.6
2017-09-20T06:12:37.057Z,9.6
2017-09-20T06:13:36.245Z,9.6
2017-09-20T06:14:35.797Z,9.6
2017-09-20T06:15:34.715Z,9.6
2017-09-20T06:16:33.889Z,9.6
2017-09-20T06:17:33.195Z,9.6
2017-09-20T06:18:32.146Z,9.6
2017-09-20T06:19:31.323Z,9.6
2017-09-20T06:20:29.997Z,9.6
2017-09-20T06:21:29.541Z,9.6
2017-09-20T06:22:28.466Z,9.6
2017-09-20T06:23:27.393Z,9.6
2017-09-20T06:25:26.078Z,9.6
2017-09-20T06:27:24.261Z,9.6
2017-09-20T06:28:23.434Z,9.6
2017-09-20T06:30:21.626Z,9.6
2017-09-20T06:31:20.812Z,9.6
2017-09-20T06:32:20.238Z,9.7
2017-09-20T06:33:18.914Z,9.7
2017-09-20T06:35:17.859Z,9.7
2017-09-20T06:36:16.901Z,9.7
2017-09-20T06:37:15.821Z,9.7
2017-09-20T06:38:14.999Z,9.7
2017-09-20T06:39:14.427Z,9.7
2017-09-20T06:40:13.222Z,9.7
2017-09-20T06:40:43.965Z,9.7
2017-09-20T06:44:09.851Z,9.7
2017-09-20T06:45:09.156Z,9.7
2017-09-20T06:46:07.953Z,9.7
2017-09-20T06:47:06.997Z,9.7
2017-09-20T06:48:06.178Z,9.7
2017-09-20T06:50:04.735Z,9.8
2017-09-20T06:52:02.798Z,9.8
2017-09-20T06:53:02.240Z,9.8
2017-09-20T06:54:01.045Z,9.8
2017-09-20T06:54:59.966Z,9.8
2017-09-20T06:55:59.012Z,9.8
2017-09-20T06:56:58.690Z,9.8
2017-09-20T06:58:56.997Z,9.9
2017-09-20T07:00:55.302Z,9.9
2017-09-20T07:01:54.478Z,9.9
2017-09-20T07:02:53.779Z,9.9
2017-09-20T07:03:52.451Z,10
2017-09-20T07:05:50.882Z,10
2017-09-20T07:06:50.306Z,10
2017-09-20T07:10:46.879Z,10
2017-09-20T07:11:45.922Z,10.1
2017-09-20T07:12:45.096Z,10.1
2017-09-20T07:13:44.395Z,10.1
2017-09-20T07:14:43.323Z,10.1
2017-09-20T07:18:40.277Z,10.1
2017-09-20T07:19:38.944Z,10.1
2017-09-20T07:20:38.246Z,10.1
2017-09-20T07:22:36.303Z,10.1
2017-09-20T07:23:35.597Z,10.1
2017-09-20T07:24:34.768Z,10.1
2017-09-20T07:25:34.073Z,10.1
2017-09-20T07:27:32.262Z,10.2
2017-09-20T07:29:30.698Z,10.2
2017-09-20T07:30:29.742Z,10.2
2017-09-20T07:31:29.172Z,10.2
2017-09-20T07:32:27.973Z,10.2
2017-09-20T07:33:27.152Z,10.2
2017-09-20T07:34:26.828Z,10.2
2017-09-20T07:35:25.875Z,10.2
2017-09-20T07:38:22.940Z,10.3
2017-09-20T07:39:22.112Z,10.3
2017-09-20T07:41:20.674Z,10.3
2017-09-20T07:42:19.468Z,10.3
2017-09-20T07:43:18.774Z,10.3
2017-09-20T07:45:16.961Z,10.3
2017-09-20T07:46:16.509Z,10.3
2017-09-20T07:47:15.051Z,10.4
2017-09-20T07:48:14.354Z,10.4
2017-09-20T07:49:13.652Z,10.4
2017-09-20T07:50:12.703Z,10.4
2017-09-20T07:51:12.128Z,10.4
2017-09-20T07:53:10.557Z,10.5
2017-09-20T07:54:09.225Z,10.5
2017-09-20T07:55:08.553Z,10.5
2017-09-20T07:57:07.241Z,10.5
2017-09-20T07:58:05.910Z,10.6
2017-09-20T07:59:05.088Z,10.6
2017-09-20T08:00:04.392Z,10.6
2017-09-20T08:01:03.561Z,10.7
2017-09-20T08:02:02.858Z,10.7
2017-09-20T08:03:02.284Z,10.7
2017-09-20T08:04:01.210Z,10.7
2017-09-20T08:05:00.379Z,10.7
2017-09-20T08:06:58.433Z,10.8
2017-09-20T08:07:57.603Z,10.8
2017-09-20T08:09:56.161Z,10.8
2017-09-20T08:10:55.087Z,10.8
2017-09-20T08:11:54.392Z,10.8
2017-09-20T08:12:53.438Z,10.8
2017-09-20T08:13:52.738Z,10.8
2017-09-20T08:14:51.670Z,10.9
2017-09-20T08:15:50.971Z,10.9
2017-09-20T08:16:50.151Z,10.9
2017-09-20T08:17:49.450Z,10.9
2017-09-20T08:18:48.876Z,11
2017-09-20T08:19:47.796Z,11
2017-09-20T08:20:46.844Z,11
2017-09-20T08:21:17.454Z,11
2017-09-20T08:21:47.310Z,11
2017-09-20T08:22:17.680Z,11
2017-09-20T08:23:44.402Z,11.1
2017-09-20T08:24:43.699Z,11.1
2017-09-20T08:26:41.754Z,11.2
2017-09-20T08:27:40.797Z,11.3
2017-09-20T08:28:40.224Z,11.3
2017-09-20T08:29:38.763Z,11.3
2017-09-20T08:30:38.568Z,11.4
2017-09-20T08:32:36.754Z,11.4
2017-09-20T08:33:35.928Z,11.5
2017-09-20T08:34:35.098Z,11.5
2017-09-20T08:35:34.390Z,11.5
2017-09-20T08:36:33.820Z,11.6
2017-09-20T08:37:32.740Z,11.6
2017-09-20T08:38:32.037Z,11.6
2017-09-20T08:39:30.958Z,11.6
2017-09-20T08:40:30.380Z,11.6
2017-09-20T08:41:29.045Z,11.6
2017-09-20T08:42:27.965Z,11.6
2017-09-20T08:43:27.647Z,11.6
2017-09-20T08:44:27.199Z,11.7
2017-09-20T08:45:25.872Z,11.7
2017-09-20T08:46:25.045Z,11.7
2017-09-20T08:47:24.349Z,11.8
2017-09-20T08:48:23.525Z,11.9
2017-09-20T08:49:22.695Z,11.9
2017-09-20T08:50:22.001Z,11.8
2017-09-20T08:51:21.294Z,11.9
2017-09-20T08:52:20.088Z,11.9
2017-09-20T08:53:19.511Z,12
2017-09-20T08:54:18.686Z,12.1
2017-09-20T08:55:17.988Z,12.1
2017-09-20T08:56:17.165Z,12.2
2017-09-20T08:57:16.205Z,12.2
2017-09-20T08:58:15.505Z,12.2
2017-09-20T08:59:14.925Z,12.3
2017-09-20T09:00:13.602Z,12.3
2017-09-20T09:01:12.646Z,12.3
2017-09-20T09:02:11.943Z,12.4
2017-09-20T09:03:11.243Z,12.4
2017-09-20T09:03:41.990Z,12.4
2017-09-20T09:05:09.478Z,12.4
2017-09-20T09:06:08.785Z,12.4
2017-09-20T09:07:08.083Z,12.4
2017-09-20T09:08:07.263Z,12.4
2017-09-20T09:09:06.563Z,12.4
2017-09-20T09:10:05.362Z,12.4
2017-09-20T09:11:05.046Z,12.5
2017-09-20T09:12:03.719Z,12.4
2017-09-20T09:13:02.893Z,12.3
2017-09-20T09:14:02.077Z,12.3
2017-09-20T09:14:32.822Z,12.3
2017-09-20T09:15:03.442Z,12.3
2017-09-20T09:16:59.652Z,12.3
2017-09-20T09:17:59.207Z,12.2
2017-09-20T09:18:58.002Z,12.2
2017-09-20T09:19:57.301Z,12.2
2017-09-20T09:20:56.599Z,12.2
2017-09-20T09:21:55.772Z,12.2
2017-09-20T09:22:55.513Z,12.2
2017-09-20T09:23:54.304Z,12.3
2017-09-20T09:24:53.605Z,12.3
2017-09-20T09:25:52.650Z,12.4
2017-09-20T09:26:51.950Z,12.4
2017-09-20T09:27:50.748Z,12.5
2017-09-20T09:28:50.047Z,12.5
2017-09-20T09:29:49.224Z,12.6
2017-09-20T09:30:48.646Z,12.6
2017-09-20T09:31:47.817Z,12.6
2017-09-20T09:32:46.869Z,12.6
2017-09-20T09:34:45.305Z,12.6
2017-09-20T09:35:44.349Z,12.5
2017-09-20T09:36:43.771Z,12.5
2017-09-20T09:37:43.201Z,12.5
2017-09-20T09:38:42.121Z,12.6
2017-09-20T09:39:41.549Z,12.6
2017-09-20T09:40:40.090Z,12.6
2017-09-20T09:41:40.018Z,12.7
2017-09-20T09:43:38.322Z,12.7
2017-09-20T09:44:37.113Z,12.8
2017-09-20T09:45:36.414Z,12.8
2017-09-20T09:46:35.591Z,12.9
2017-09-20T09:47:35.141Z,12.9
2017-09-20T09:48:34.061Z,12.9
2017-09-20T09:49:33.491Z,12.9
2017-09-20T09:50:32.666Z,13
2017-09-20T09:51:31.481Z,13
2017-09-20T09:52:30.904Z,13
2017-09-20T09:53:30.207Z,13.1
2017-09-20T09:54:29.636Z,13.2
2017-09-20T09:55:28.436Z,13.2
2017-09-20T09:56:27.990Z,13.3
2017-09-20T09:57:26.786Z,13.4
2017-09-20T09:58:25.862Z,13.5
2017-09-20T09:58:56.477Z,13.5
2017-09-20T10:00:24.465Z,13.6
2017-09-20T10:01:23.509Z,13.6
2017-09-20T10:02:22.687Z,13.6
2017-09-20T10:03:21.983Z,13.6
2017-09-20T10:05:20.799Z,13.5
2017-09-20T10:06:19.474Z,13.5
2017-09-20T10:08:18.038Z,13.5
2017-09-20T10:09:17.463Z,13.5
2017-09-20T10:10:17.012Z,13.5
2017-09-20T10:11:16.060Z,13.6
2017-09-20T10:12:14.990Z,13.6
2017-09-20T10:13:14.291Z,13.7
2017-09-20T10:14:13.210Z,13.7
2017-09-20T10:15:12.513Z,13.8
2017-09-20T10:16:11.943Z,13.9
2017-09-20T10:17:11.489Z,13.9
2017-09-20T10:18:10.409Z,14
2017-09-20T10:19:09.206Z,14
2017-09-20T10:20:08.632Z,14
2017-09-20T10:21:08.375Z,14
2017-09-20T10:22:07.416Z,14
2017-09-20T10:23:06.088Z,13.9
2017-09-20T10:24:05.394Z,13.9
2017-09-20T10:25:04.578Z,13.9
2017-09-20T10:26:04.000Z,13.8
2017-09-20T10:27:03.432Z,13.8
2017-09-20T10:28:02.860Z,13.8
2017-09-20T10:29:02.035Z,13.8
2017-09-20T10:30:00.832Z,13.9
2017-09-20T10:31:00.134Z,13.9
2017-09-20T10:31:59.567Z,13.9
2017-09-20T10:32:58.236Z,14
2017-09-20T10:33:57.970Z,14
2017-09-20T10:34:56.915Z,14.1
2017-09-20T10:36:55.475Z,14.2
2017-09-20T10:37:54.655Z,14.2
2017-09-20T10:38:54.084Z,14.2
2017-09-20T10:39:24.066Z,14.2
2017-09-20T10:39:54.546Z,14.2
2017-09-20T10:40:25.029Z,14.2
2017-09-20T10:41:51.382Z,14.4
2017-09-20T10:42:50.687Z,14.4
2017-09-20T10:43:49.856Z,14.4
2017-09-20T10:44:49.162Z,14.5
2017-09-20T10:45:48.335Z,14.4
2017-09-20T10:46:47.887Z,14.4
2017-09-20T10:47:46.694Z,14.5
2017-09-20T10:48:46.239Z,14.6
2017-09-20T10:49:16.483Z,14.6
2017-09-20T10:49:47.095Z,14.6
2017-09-20T10:50:17.707Z,14.6
2017-09-20T10:50:47.940Z,14.6
2017-09-20T10:51:18.422Z,14.6
2017-09-20T10:51:49.286Z,14.7
2017-09-20T10:52:19.554Z,14.7
2017-09-20T10:52:49.794Z,14.7
2017-09-20T10:53:20.409Z,14.7
2017-09-20T10:55:40.738Z,14.7
2017-09-20T10:57:39.016Z,14.7
2017-09-20T10:58:38.312Z,14.7
2017-09-20T10:59:37.358Z,14.7
2017-09-20T11:00:36.528Z,14.7
2017-09-20T11:01:36.092Z,14.7
2017-09-20T11:02:35.516Z,14.7
2017-09-20T11:03:34.439Z,14.7
2017-09-20T11:06:32.250Z,14.7
2017-09-20T11:07:31.425Z,14.6
2017-09-20T11:08:30.979Z,14.6
2017-09-20T11:09:29.648Z,14.6
2017-09-20T11:10:29.193Z,14.5
2017-09-20T11:11:28.618Z,14.5
2017-09-20T11:12:27.415Z,14.5
2017-09-20T11:13:26.593Z,14.5
2017-09-20T11:15:25.288Z,14.5
2017-09-20T11:16:24.834Z,14.6
2017-09-20T11:17:23.504Z,14.6
2017-09-20T11:18:22.823Z,14.6
2017-09-20T11:19:22.128Z,14.6
2017-09-20T11:20:21.705Z,14.7
2017-09-20T11:21:20.500Z,14.8
2017-09-20T11:22:19.801Z,14.9
2017-09-20T11:22:49.912Z,14.9
2017-09-20T11:23:20.783Z,15
2017-09-20T11:24:18.319Z,15.1
2017-09-20T11:25:17.745Z,15.2
2017-09-20T11:26:17.041Z,15.3
2017-09-20T11:27:15.714Z,15.4
2017-09-20T11:28:15.139Z,15.5
2017-09-20T11:29:14.441Z,15.5
2017-09-20T11:30:13.739Z,15.4
2017-09-20T11:31:13.172Z,15.4
2017-09-20T11:32:12.219Z,15.4
2017-09-20T11:33:11.522Z,15.3
2017-09-20T11:33:42.130Z,15.3
2017-09-20T11:34:12.496Z,15.2
2017-09-20T11:35:10.039Z,15.2
2017-09-20T11:36:09.085Z,15.2
2017-09-20T11:37:08.639Z,15.1
2017-09-20T11:38:07.431Z,15.1
2017-09-20T11:39:06.608Z,15
2017-09-20T11:40:06.156Z,15
2017-09-20T11:41:05.580Z,15
2017-09-20T11:42:04.753Z,15
2017-09-20T11:43:03.798Z,15
2017-09-20T11:44:02.973Z,15
2017-09-20T11:45:02.022Z,15
2017-09-20T11:46:01.830Z,15
2017-09-20T11:48:00.011Z,15
2017-09-20T11:49:58.821Z,15
2017-09-20T11:50:57.993Z,15
2017-09-20T11:51:57.294Z,15
2017-09-20T11:53:55.360Z,15.1
2017-09-20T11:56:53.438Z,15.2
2017-09-20T11:59:51.003Z,15.3
2017-09-20T12:00:50.176Z,15.3
2017-09-20T12:01:49.346Z,15.2
2017-09-20T12:02:48.889Z,15.1
2017-09-20T12:03:48.192Z,14.8
2017-09-20T12:04:47.108Z,14.6
2017-09-20T12:05:46.162Z,14.5
2017-09-20T12:07:44.719Z,14.3
2017-09-20T12:08:44.019Z,14.3
2017-09-20T12:09:43.698Z,14.3
2017-09-20T12:10:42.368Z,14.2
2017-09-20T12:12:40.926Z,14.1
2017-09-20T12:13:40.604Z,14.1
2017-09-20T12:14:39.653Z,14
2017-09-20T12:15:38.953Z,14
2017-09-20T12:16:38.124Z,14
2017-09-20T12:17:37.551Z,13.9
2017-09-20T12:18:36.990Z,13.9
2017-09-20T12:19:07.355Z,13.9
2017-09-20T12:19:37.211Z,13.8
2017-09-20T12:20:34.996Z,13.8
2017-09-20T12:21:05.610Z,13.8
2017-09-20T12:21:36.349Z,13.8
2017-09-20T12:22:33.508Z,13.7
2017-09-20T12:23:32.928Z,13.6
2017-09-20T12:24:32.218Z,13.5
2017-09-20T12:26:30.774Z,13.4
2017-09-20T12:31:26.484Z,12.1
2017-09-20T12:32:26.284Z,11.9
2017-09-20T12:33:25.204Z,11.7
2017-09-20T12:34:24.628Z,11.7
2017-09-20T12:35:23.300Z,11.5
2017-09-20T12:36:23.367Z,11.4
2017-09-20T12:37:22.047Z,11.4
2017-09-20T12:39:20.611Z,11.3
2017-09-20T12:41:19.291Z,11.3
2017-09-20T12:42:18.092Z,11.3
2017-09-20T12:43:17.135Z,11.3
2017-09-20T12:44:16.812Z,11.3
2017-09-20T12:45:15.985Z,11.4
2017-09-20T12:49:12.808Z,11.5
2017-09-20T12:50:11.983Z,11.5
2017-09-20T12:51:11.282Z,11.5
2017-09-20T12:52:10.086Z,11.6
2017-09-20T12:53:09.641Z,11.6
2017-09-20T12:54:08.817Z,11.6
2017-09-20T12:56:07.135Z,11.7
2017-09-20T12:57:06.307Z,11.7
2017-09-20T12:58:05.475Z,11.7
2017-09-20T12:59:04.770Z,11.8
2017-09-20T13:06:58.510Z,12
2017-09-20T13:08:56.811Z,12.1
2017-09-20T13:10:55.133Z,12.2
2017-09-20T13:11:25.745Z,12.2
2017-09-20T13:12:53.980Z,12.3
2017-09-20T13:13:52.778Z,12.2
2017-09-20T13:14:52.331Z,12.2
2017-09-20T13:15:51.247Z,12.2
2017-09-20T13:16:50.297Z,12.3
2017-09-20T13:17:49.725Z,12.3
2017-09-20T13:18:48.898Z,12.3
2017-09-20T13:19:48.325Z,12.4
2017-09-20T13:20:47.371Z,12.4
2017-09-20T13:21:46.668Z,12.4
2017-09-20T13:22:17.150Z,12.4
2017-09-20T13:23:44.500Z,12.5
2017-09-20T13:24:44.301Z,12.5
2017-09-20T13:26:42.353Z,12.6
2017-09-20T13:27:41.773Z,12.6
2017-09-20T13:28:41.074Z,12.7
2017-09-20T13:29:39.990Z,12.8
2017-09-20T13:31:38.554Z,12.8
2017-09-20T13:32:37.860Z,12.9
2017-09-20T13:34:35.912Z,13
2017-09-20T13:35:35.712Z,13.1
2017-09-20T13:36:34.254Z,13.2
2017-09-20T13:37:33.554Z,13.2
2017-09-20T13:38:33.359Z,13.3
2017-09-20T13:39:32.030Z,13.4
2017-09-20T13:40:31.325Z,13.5
2017-09-20T13:44:28.279Z,13.5
2017-09-20T13:45:27.581Z,13.5
2017-09-20T13:48:25.145Z,13.6
2017-09-20T13:52:22.361Z,13.7
2017-09-20T13:57:18.074Z,14
2017-09-20T14:02:14.284Z,13.9
2017-09-20T14:03:13.450Z,14
2017-09-20T14:04:12.877Z,14
2017-09-20T14:05:12.052Z,14.1
2017-09-20T14:06:10.594Z,14.2
2017-09-20T14:10:07.935Z,14.7
2017-09-20T14:11:06.977Z,14.8
2017-09-20T14:12:06.549Z,14.7
2017-09-20T14:15:03.863Z,14.5
2017-09-20T14:16:03.662Z,14.5
2017-09-20T14:17:02.336Z,14.4
2017-09-20T14:18:01.508Z,14.4
2017-09-20T14:20:00.205Z,14.2
2017-09-20T14:20:59.635Z,14.1
2017-09-20T14:21:58.424Z,14.1
2017-09-20T14:22:57.597Z,14
2017-09-20T14:23:57.150Z,14
2017-09-20T14:24:56.840Z,13.9
2017-09-20T14:27:53.911Z,13.9
2017-09-20T14:28:53.209Z,13.9
2017-09-20T14:29:52.929Z,13.8
2017-09-20T14:30:51.726Z,13.8
2017-09-20T14:31:51.144Z,13.8
2017-09-20T14:32:49.939Z,13.8
2017-09-20T14:33:49.488Z,13.8
2017-09-20T14:36:47.049Z,13.7
2017-09-20T14:37:46.342Z,13.6
2017-09-20T14:38:45.892Z,13.6
2017-09-20T14:39:44.694Z,13.6
2017-09-20T14:40:43.994Z,13.5
2017-09-20T14:41:43.169Z,13.5
2017-09-20T14:42:42.463Z,13.4
2017-09-20T14:43:41.634Z,13.3
2017-09-20T14:44:12.120Z,13.3
2017-09-20T14:44:42.477Z,13.3
2017-09-20T14:45:40.645Z,13.3
2017-09-20T14:46:39.322Z,13.3
2017-09-20T14:47:38.879Z,13.2
2017-09-20T14:48:37.795Z,13.2
2017-09-20T14:49:37.217Z,13.2
2017-09-20T14:50:36.017Z,13.2
2017-09-20T14:51:35.320Z,13.2
2017-09-20T14:52:34.621Z,13.1
2017-09-20T14:53:34.053Z,13.1
2017-09-20T14:54:32.852Z,13.1
2017-09-20T14:55:32.415Z,13.1
2017-09-20T14:57:30.597Z,13.1
2017-09-20T14:59:29.279Z,13.1
2017-09-20T15:00:28.572Z,13
2017-09-20T15:01:27.995Z,13
2017-09-20T15:02:26.662Z,13
2017-09-20T15:03:25.713Z,13.1
2017-09-20T15:03:56.329Z,13.1
2017-09-20T15:05:24.560Z,13